sensor_id;sensor_type;location;lat;lon;timestamp;pressure;altitude;pressure_sealevel;temperature
53667;BMP280;39568;51.026;5.468;2022-07-05T00:00:21;101431.53;;;16.05
53667;BMP280;39568;51.026;5.468;2022-07-05T00:02:48;101432.97;;;16.06
53667;BMP280;39568;51.026;5.468;2022-07-05T00:05:15;101429.28;;;15.85
53667;BMP280;39568;51.026;5.468;2022-07-05T00:07:46;101424.16;;;15.63
53667;BMP280;39568;51.026;5.468;2022-07-05T00:10:13;101417.00;;;15.47
53667;BMP280;39568;51.026;5.468;2022-07-05T00:12:42;101413.75;;;15.30
53667;BMP280;39568;51.026;5.468;2022-07-05T00:15:10;101411.16;;;15.19
53667;BMP280;39568;51.026;5.468;2022-07-05T00:17:37;101405.88;;;15.08
53667;BMP280;39568;51.026;5.468;2022-07-05T00:20:05;101409.66;;;14.94
53667;BMP280;39568;51.026;5.468;2022-07-05T00:22:33;101410.69;;;14.79
53667;BMP280;39568;51.026;5.468;2022-07-05T00:25:09;101416.88;;;14.69
53667;BMP280;39568;51.026;5.468;2022-07-05T00:27:41;101411.34;;;14.61
53667;BMP280;39568;51.026;5.468;2022-07-05T00:30:10;101415.00;;;14.58
53667;BMP280;39568;51.026;5.468;2022-07-05T00:32:37;101410.63;;;14.55
53667;BMP280;39568;51.026;5.468;2022-07-05T00:35:05;101405.03;;;14.53
53667;BMP280;39568;51.026;5.468;2022-07-05T00:37:33;101406.69;;;14.56
53667;BMP280;39568;51.026;5.468;2022-07-05T00:40:00;101406.22;;;14.58
53667;BMP280;39568;51.026;5.468;2022-07-05T00:42:29;101406.69;;;14.56
53667;BMP280;39568;51.026;5.468;2022-07-05T00:45:03;101409.19;;;14.54
53667;BMP280;39568;51.026;5.468;2022-07-05T00:47:30;101405.28;;;14.50
53667;BMP280;39568;51.026;5.468;2022-07-05T00:49:56;101410.91;;;14.46
53667;BMP280;39568;51.026;5.468;2022-07-05T00:52:23;101418.50;;;14.42
53667;BMP280;39568;51.026;5.468;2022-07-05T00:54:50;101405.63;;;14.35
53667;BMP280;39568;51.026;5.468;2022-07-05T00:57:18;101409.53;;;14.29
53667;BMP280;39568;51.026;5.468;2022-07-05T00:59:48;101412.72;;;14.22
53667;BMP280;39568;51.026;5.468;2022-07-05T01:02:17;101420.31;;;14.12
53667;BMP280;39568;51.026;5.468;2022-07-05T01:04:48;101420.56;;;14.03
53667;BMP280;39568;51.026;5.468;2022-07-05T01:07:15;101407.69;;;13.96
53667;BMP280;39568;51.026;5.468;2022-07-05T01:09:42;101412.03;;;14.10
53667;BMP280;39568;51.026;5.468;2022-07-05T01:12:09;101408.41;;;14.07
53667;BMP280;39568;51.026;5.468;2022-07-05T01:14:36;101410.84;;;14.05
53667;BMP280;39568;51.026;5.468;2022-07-05T01:17:03;101415.72;;;14.07
53667;BMP280;39568;51.026;5.468;2022-07-05T01:19:31;101411.59;;;13.95
53667;BMP280;39568;51.026;5.468;2022-07-05T01:22:01;101400.69;;;13.82
53667;BMP280;39568;51.026;5.468;2022-07-05T01:24:31;101407.50;;;13.83
53667;BMP280;39568;51.026;5.468;2022-07-05T01:26:58;101420.66;;;13.64
53667;BMP280;39568;51.026;5.468;2022-07-05T01:29:29;101409.22;;;13.64
53667;BMP280;39568;51.026;5.468;2022-07-05T01:31:56;101413.13;;;13.52
53667;BMP280;39568;51.026;5.468;2022-07-05T01:34:23;101407.53;;;13.55
53667;BMP280;39568;51.026;5.468;2022-07-05T01:36:51;101406.06;;;13.43
53667;BMP280;39568;51.026;5.468;2022-07-05T01:39:20;101402.94;;;13.22
53667;BMP280;39568;51.026;5.468;2022-07-05T01:41:48;101409.22;;;13.08
53667;BMP280;39568;51.026;5.468;2022-07-05T01:44:15;101403.88;;;12.97
53667;BMP280;39568;51.026;5.468;2022-07-05T01:46:42;101394.66;;;12.87
53667;BMP280;39568;51.026;5.468;2022-07-05T01:49:11;101397.25;;;12.76
53667;BMP280;39568;51.026;5.468;2022-07-05T01:51:41;101395.78;;;12.69
53667;BMP280;39568;51.026;5.468;2022-07-05T01:54:08;101394.56;;;12.54
53667;BMP280;39568;51.026;5.468;2022-07-05T01:56:39;101396.22;;;12.46
53667;BMP280;39568;51.026;5.468;2022-07-05T01:59:07;101391.34;;;12.39
53667;BMP280;39568;51.026;5.468;2022-07-05T02:01:35;101400.53;;;12.32
53667;BMP280;39568;51.026;5.468;2022-07-05T02:04:04;101400.25;;;12.25
53667;BMP280;39568;51.026;5.468;2022-07-05T02:06:32;101397.31;;;12.23
53667;BMP280;39568;51.026;5.468;2022-07-05T02:08:59;101397.06;;;12.21
53667;BMP280;39568;51.026;5.468;2022-07-05T02:11:25;101395.34;;;12.18
53667;BMP280;39568;51.026;5.468;2022-07-05T02:13:52;101394.84;;;12.14
53667;BMP280;39568;51.026;5.468;2022-07-05T02:16:26;101398.75;;;12.13
53667;BMP280;39568;51.026;5.468;2022-07-05T02:18:55;101395.81;;;12.11
53667;BMP280;39568;51.026;5.468;2022-07-05T02:21:23;101398.97;;;12.09
53667;BMP280;39568;51.026;5.468;2022-07-05T02:23:50;101397.50;;;12.08
53667;BMP280;39568;51.026;5.468;2022-07-05T02:26:17;101396.19;;;12.40
53667;BMP280;39568;51.026;5.468;2022-07-05T02:28:43;101395.50;;;12.51
53667;BMP280;39568;51.026;5.468;2022-07-05T02:31:10;101399.28;;;12.28
53667;BMP280;39568;51.026;5.468;2022-07-05T02:33:38;101396.09;;;12.18
53667;BMP280;39568;51.026;5.468;2022-07-05T02:36:06;101397.97;;;12.06
53667;BMP280;39568;51.026;5.468;2022-07-05T02:38:34;101400.13;;;12.02
53667;BMP280;39568;51.026;5.468;2022-07-05T02:41:01;101401.06;;;11.99
53667;BMP280;39568;51.026;5.468;2022-07-05T02:43:30;101399.59;;;11.93
53667;BMP280;39568;51.026;5.468;2022-07-05T02:46:03;101397.38;;;11.86
53667;BMP280;39568;51.026;5.468;2022-07-05T02:48:34;101405.31;;;11.80
53667;BMP280;39568;51.026;5.468;2022-07-05T02:51:04;101393.91;;;11.74
53667;BMP280;39568;51.026;5.468;2022-07-05T02:53:31;101399.94;;;11.69
53667;BMP280;39568;51.026;5.468;2022-07-05T02:55:59;101405.19;;;11.64
53667;BMP280;39568;51.026;5.468;2022-07-05T02:58:27;101407.34;;;11.60
53667;BMP280;39568;51.026;5.468;2022-07-05T03:00:54;101406.41;;;11.63
53667;BMP280;39568;51.026;5.468;2022-07-05T03:03:21;101404.47;;;11.63
53667;BMP280;39568;51.026;5.468;2022-07-05T03:05:47;101407.66;;;11.67
53667;BMP280;39568;51.026;5.468;2022-07-05T03:08:17;101408.81;;;11.61
53667;BMP280;39568;51.026;5.468;2022-07-05T03:10:44;101407.13;;;11.63
53667;BMP280;39568;51.026;5.468;2022-07-05T03:13:11;101411.75;;;11.63
53667;BMP280;39568;51.026;5.468;2022-07-05T03:15:38;101405.28;;;11.75
53667;BMP280;39568;51.026;5.468;2022-07-05T03:18:04;101408.56;;;11.90
53667;BMP280;39568;51.026;5.468;2022-07-05T03:20:31;101409.19;;;11.79
53667;BMP280;39568;51.026;5.468;2022-07-05T03:22:58;101404.69;;;11.60
53667;BMP280;39568;51.026;5.468;2022-07-05T03:25:26;101398.81;;;11.50
53667;BMP280;39568;51.026;5.468;2022-07-05T03:27:53;101416.16;;;11.40
53667;BMP280;39568;51.026;5.468;2022-07-05T03:30:19;101408.81;;;11.29
53667;BMP280;39568;51.026;5.468;2022-07-05T03:32:47;101421.81;;;11.22
53667;BMP280;39568;51.026;5.468;2022-07-05T03:35:17;101411.03;;;11.11
53667;BMP280;39568;51.026;5.468;2022-07-05T03:37:44;101418.03;;;11.08
53667;BMP280;39568;51.026;5.468;2022-07-05T03:40:11;101424.53;;;11.02
53667;BMP280;39568;51.026;5.468;2022-07-05T03:42:38;101420.13;;;10.99
53667;BMP280;39568;51.026;5.468;2022-07-05T03:45:06;101426.94;;;11.00
53667;BMP280;39568;51.026;5.468;2022-07-05T03:47:32;101423.84;;;11.07
53667;BMP280;39568;51.026;5.468;2022-07-05T03:49:59;101430.38;;;11.06
53667;BMP280;39568;51.026;5.468;2022-07-05T03:52:26;101426.22;;;11.05
53667;BMP280;39568;51.026;5.468;2022-07-05T03:54:52;101422.44;;;11.11
53667;BMP280;39568;51.026;5.468;2022-07-05T03:57:23;101417.91;;;11.49
53667;BMP280;39568;51.026;5.468;2022-07-05T03:59:51;101427.03;;;11.62
53667;BMP280;39568;51.026;5.468;2022-07-05T04:02:24;101427.66;;;11.52
53667;BMP280;39568;51.026;5.468;2022-07-05T04:04:55;101422.72;;;11.39
53667;BMP280;39568;51.026;5.468;2022-07-05T04:07:21;101423.47;;;11.45
53667;BMP280;39568;51.026;5.468;2022-07-05T04:09:48;101417.41;;;11.44
53667;BMP280;39568;51.026;5.468;2022-07-05T04:12:15;101425.41;;;11.44
53667;BMP280;39568;51.026;5.468;2022-07-05T04:14:42;101428.81;;;11.45
53667;BMP280;39568;51.026;5.468;2022-07-05T04:17:11;101428.59;;;11.49
53667;BMP280;39568;51.026;5.468;2022-07-05T04:19:39;101435.91;;;11.54
53667;BMP280;39568;51.026;5.468;2022-07-05T04:22:06;101438.59;;;11.59
53667;BMP280;39568;51.026;5.468;2022-07-05T04:24:32;101441.84;;;11.69
53667;BMP280;39568;51.026;5.468;2022-07-05T04:27:20;101438.28;;;11.77
53667;BMP280;39568;51.026;5.468;2022-07-05T04:29:46;101440.50;;;11.84
53667;BMP280;39568;51.026;5.468;2022-07-05T04:32:14;101444.94;;;11.93
53667;BMP280;39568;51.026;5.468;2022-07-05T04:34:41;101449.38;;;12.01
53667;BMP280;39568;51.026;5.468;2022-07-05T04:37:08;101459.84;;;12.11
53667;BMP280;39568;51.026;5.468;2022-07-05T04:39:34;101456.72;;;12.18
53667;BMP280;39568;51.026;5.468;2022-07-05T04:42:01;101451.91;;;12.27
53667;BMP280;39568;51.026;5.468;2022-07-05T04:44:28;101459.00;;;12.36
53667;BMP280;39568;51.026;5.468;2022-07-05T04:46:54;101456.88;;;12.45
53667;BMP280;39568;51.026;5.468;2022-07-05T04:49:25;101449.38;;;12.55
53667;BMP280;39568;51.026;5.468;2022-07-05T04:51:53;101458.41;;;12.68
53667;BMP280;39568;51.026;5.468;2022-07-05T04:54:22;101445.41;;;12.87
53667;BMP280;39568;51.026;5.468;2022-07-05T04:56:49;101459.28;;;13.13
53667;BMP280;39568;51.026;5.468;2022-07-05T04:59:15;101464.88;;;13.43
53667;BMP280;39568;51.026;5.468;2022-07-05T05:01:43;101468.53;;;13.62
53667;BMP280;39568;51.026;5.468;2022-07-05T05:04:09;101465.38;;;13.80
53667;BMP280;39568;51.026;5.468;2022-07-05T05:06:40;101464.59;;;14.02
53667;BMP280;39568;51.026;5.468;2022-07-05T05:09:06;101466.25;;;14.22
53667;BMP280;39568;51.026;5.468;2022-07-05T05:11:33;101462.81;;;14.32
53667;BMP280;39568;51.026;5.468;2022-07-05T05:13:59;101465.25;;;14.36
53667;BMP280;39568;51.026;5.468;2022-07-05T05:16:26;101467.38;;;14.54
53667;BMP280;39568;51.026;5.468;2022-07-05T05:18:53;101470.75;;;14.60
53667;BMP280;39568;51.026;5.468;2022-07-05T05:21:19;101461.47;;;14.66
53667;BMP280;39568;51.026;5.468;2022-07-05T05:23:47;101472.09;;;14.83
53667;BMP280;39568;51.026;5.468;2022-07-05T05:26:14;101473.78;;;14.86
53667;BMP280;39568;51.026;5.468;2022-07-05T05:28:41;101466.34;;;15.03
53667;BMP280;39568;51.026;5.468;2022-07-05T05:31:07;101465.03;;;15.15
53667;BMP280;39568;51.026;5.468;2022-07-05T05:33:34;101463.75;;;15.27
53667;BMP280;39568;51.026;5.468;2022-07-05T05:36:02;101472.38;;;15.44
53667;BMP280;39568;51.026;5.468;2022-07-05T05:38:29;101469.66;;;15.50
53667;BMP280;39568;51.026;5.468;2022-07-05T05:41:03;101473.03;;;15.56
53667;BMP280;39568;51.026;5.468;2022-07-05T05:43:29;101472.00;;;15.59
53667;BMP280;39568;51.026;5.468;2022-07-05T05:45:56;101470.91;;;15.73
53667;BMP280;39568;51.026;5.468;2022-07-05T05:48:23;101478.06;;;15.89
53667;BMP280;39568;51.026;5.468;2022-07-05T05:50:50;101477.88;;;16.06
53667;BMP280;39568;51.026;5.468;2022-07-05T05:53:17;101490.97;;;16.15
53667;BMP280;39568;51.026;5.468;2022-07-05T05:55:44;101483.66;;;16.15
53667;BMP280;39568;51.026;5.468;2022-07-05T05:58:15;101484.97;;;16.28
53667;BMP280;39568;51.026;5.468;2022-07-05T06:00:42;101487.00;;;16.40
53667;BMP280;39568;51.026;5.468;2022-07-05T06:03:13;101475.97;;;16.62
53667;BMP280;39568;51.026;5.468;2022-07-05T06:05:47;101499.03;;;16.71
53667;BMP280;39568;51.026;5.468;2022-07-05T06:08:23;101493.53;;;16.82
53667;BMP280;39568;51.026;5.468;2022-07-05T06:10:50;101489.59;;;17.02
53667;BMP280;39568;51.026;5.468;2022-07-05T06:13:21;101487.00;;;17.09
53667;BMP280;39568;51.026;5.468;2022-07-05T06:15:49;101491.09;;;17.29
53667;BMP280;39568;51.026;5.468;2022-07-05T06:18:16;101489.03;;;17.35
53667;BMP280;39568;51.026;5.468;2022-07-05T06:20:46;101492.88;;;17.39
53667;BMP280;39568;51.026;5.468;2022-07-05T06:23:12;101488.94;;;17.53
53667;BMP280;39568;51.026;5.468;2022-07-05T06:25:39;101493.50;;;17.58
53667;BMP280;39568;51.026;5.468;2022-07-05T06:28:07;101491.16;;;17.81
53667;BMP280;39568;51.026;5.468;2022-07-05T06:30:37;101493.63;;;17.79
53667;BMP280;39568;51.026;5.468;2022-07-05T06:33:07;101506.50;;;17.86
53667;BMP280;39568;51.026;5.468;2022-07-05T06:35:35;101506.66;;;18.01
53667;BMP280;39568;51.026;5.468;2022-07-05T06:38:03;101505.00;;;18.11
53667;BMP280;39568;51.026;5.468;2022-07-05T06:40:32;101510.28;;;18.17
53667;BMP280;39568;51.026;5.468;2022-07-05T06:43:00;101518.59;;;18.19
53667;BMP280;39568;51.026;5.468;2022-07-05T06:45:28;101508.41;;;18.38
53667;BMP280;39568;51.026;5.468;2022-07-05T06:47:56;101518.28;;;18.56
53667;BMP280;39568;51.026;5.468;2022-07-05T06:50:24;101514.19;;;18.63
53667;BMP280;39568;51.026;5.468;2022-07-05T06:52:51;101522.34;;;18.83
53667;BMP280;39568;51.026;5.468;2022-07-05T06:55:19;101521.41;;;18.81
53667;BMP280;39568;51.026;5.468;2022-07-05T06:57:46;101521.06;;;18.84
53667;BMP280;39568;51.026;5.468;2022-07-05T07:00:19;101530.63;;;18.85
53667;BMP280;39568;51.026;5.468;2022-07-05T07:02:46;101525.34;;;18.80
53667;BMP280;39568;51.026;5.468;2022-07-05T07:05:14;101525.94;;;18.65
53667;BMP280;39568;51.026;5.468;2022-07-05T07:07:40;101524.81;;;18.61
53667;BMP280;39568;51.026;5.468;2022-07-05T07:10:25;101526.44;;;18.64
53667;BMP280;39568;51.026;5.468;2022-07-05T07:12:51;101528.63;;;18.65
53667;BMP280;39568;51.026;5.468;2022-07-05T07:15:18;101534.59;;;18.71
53667;BMP280;39568;51.026;5.468;2022-07-05T07:17:44;101525.78;;;18.84
53667;BMP280;39568;51.026;5.468;2022-07-05T07:20:11;101529.50;;;19.01
53667;BMP280;39568;51.026;5.468;2022-07-05T07:22:39;101532.00;;;19.20
53667;BMP280;39568;51.026;5.468;2022-07-05T07:25:06;101529.94;;;19.33
53667;BMP280;39568;51.026;5.468;2022-07-05T07:27:43;101526.13;;;19.29
53667;BMP280;39568;51.026;5.468;2022-07-05T07:30:14;101533.75;;;19.38
53667;BMP280;39568;51.026;5.468;2022-07-05T07:32:40;101534.13;;;19.42
53667;BMP280;39568;51.026;5.468;2022-07-05T07:35:08;101532.63;;;19.33
53667;BMP280;39568;51.026;5.468;2022-07-05T07:37:35;101546.50;;;19.38
53667;BMP280;39568;51.026;5.468;2022-07-05T07:40:05;101542.19;;;19.35
53667;BMP280;39568;51.026;5.468;2022-07-05T07:42:32;101539.31;;;19.61
53667;BMP280;39568;51.026;5.468;2022-07-05T07:44:59;101548.09;;;19.82
53667;BMP280;39568;51.026;5.468;2022-07-05T07:47:28;101540.06;;;19.97
53667;BMP280;39568;51.026;5.468;2022-07-05T07:49:55;101547.47;;;20.04
53667;BMP280;39568;51.026;5.468;2022-07-05T07:52:22;101549.84;;;20.15
53667;BMP280;39568;51.026;5.468;2022-07-05T07:54:48;101544.66;;;20.17
53667;BMP280;39568;51.026;5.468;2022-07-05T07:57:19;101551.13;;;20.14
53667;BMP280;39568;51.026;5.468;2022-07-05T07:59:52;101545.50;;;20.12
53667;BMP280;39568;51.026;5.468;2022-07-05T08:02:20;101548.25;;;20.20
53667;BMP280;39568;51.026;5.468;2022-07-05T08:04:48;101538.56;;;20.32
53667;BMP280;39568;51.026;5.468;2022-07-05T08:07:15;101540.94;;;20.43
53667;BMP280;39568;51.026;5.468;2022-07-05T08:09:42;101542.19;;;20.49
53667;BMP280;39568;51.026;5.468;2022-07-05T08:12:09;101548.53;;;20.44
53667;BMP280;39568;51.026;5.468;2022-07-05T08:14:37;101552.66;;;20.45
53667;BMP280;39568;51.026;5.468;2022-07-05T08:17:04;101556.28;;;20.48
53667;BMP280;39568;51.026;5.468;2022-07-05T08:19:33;101545.84;;;20.59
53667;BMP280;39568;51.026;5.468;2022-07-05T08:22:18;101548.34;;;20.50
53667;BMP280;39568;51.026;5.468;2022-07-05T08:24:45;101543.69;;;20.65
53667;BMP280;39568;51.026;5.468;2022-07-05T08:27:12;101544.75;;;20.62
53667;BMP280;39568;51.026;5.468;2022-07-05T08:29:40;101547.28;;;20.53
53667;BMP280;39568;51.026;5.468;2022-07-05T08:32:08;101544.75;;;20.62
53667;BMP280;39568;51.026;5.468;2022-07-05T08:34:35;101542.81;;;20.85
53667;BMP280;39568;51.026;5.468;2022-07-05T08:37:02;101545.50;;;20.70
53667;BMP280;39568;51.026;5.468;2022-07-05T08:39:29;101535.03;;;20.67
53667;BMP280;39568;51.026;5.468;2022-07-05T08:41:58;101538.28;;;20.65
53667;BMP280;39568;51.026;5.468;2022-07-05T08:44:28;101534.31;;;20.66
53667;BMP280;39568;51.026;5.468;2022-07-05T08:46:57;101540.66;;;20.84
53667;BMP280;39568;51.026;5.468;2022-07-05T08:49:26;101535.41;;;20.78
53667;BMP280;39568;51.026;5.468;2022-07-05T08:51:55;101541.56;;;20.86
53667;BMP280;39568;51.026;5.468;2022-07-05T08:54:23;101538.31;;;20.80
53667;BMP280;39568;51.026;5.468;2022-07-05T08:56:51;101539.41;;;20.92
53667;BMP280;39568;51.026;5.468;2022-07-05T08:59:17;101535.41;;;21.24
53667;BMP280;39568;51.026;5.468;2022-07-05T09:01:48;101547.81;;;21.57
53667;BMP280;39568;51.026;5.468;2022-07-05T09:04:19;101536.41;;;21.66
53667;BMP280;39568;51.026;5.468;2022-07-05T09:06:47;101539.69;;;21.57
53667;BMP280;39568;51.026;5.468;2022-07-05T09:09:17;101552.69;;;21.51
53667;BMP280;39568;51.026;5.468;2022-07-05T09:11:45;101549.63;;;21.54
53667;BMP280;39568;51.026;5.468;2022-07-05T09:14:20;101550.78;;;21.91
53667;BMP280;39568;51.026;5.468;2022-07-05T09:16:47;101546.91;;;22.41
53667;BMP280;39568;51.026;5.468;2022-07-05T09:19:14;101541.56;;;22.83
53667;BMP280;39568;51.026;5.468;2022-07-05T09:21:45;101542.59;;;22.38
53667;BMP280;39568;51.026;5.468;2022-07-05T09:24:14;101543.50;;;22.01
53667;BMP280;39568;51.026;5.468;2022-07-05T09:26:49;101545.72;;;22.59
53667;BMP280;39568;51.026;5.468;2022-07-05T09:29:19;101541.66;;;22.68
53667;BMP280;39568;51.026;5.468;2022-07-05T09:31:47;101552.84;;;23.14
53667;BMP280;39568;51.026;5.468;2022-07-05T09:34:18;101545.84;;;23.89
53667;BMP280;39568;51.026;5.468;2022-07-05T09:36:51;101542.03;;;24.64
53667;BMP280;39568;51.026;5.468;2022-07-05T09:39:18;101545.06;;;24.77
53667;BMP280;39568;51.026;5.468;2022-07-05T09:41:52;101552.25;;;24.73
53667;BMP280;39568;51.026;5.468;2022-07-05T09:44:35;101542.00;;;23.48
53667;BMP280;39568;51.026;5.468;2022-07-05T09:47:08;101545.97;;;23.47
53667;BMP280;39568;51.026;5.468;2022-07-05T09:49:44;101545.19;;;23.71
53667;BMP280;39568;51.026;5.468;2022-07-05T09:52:38;101554.13;;;22.46
53667;BMP280;39568;51.026;5.468;2022-07-05T09:55:08;101556.53;;;21.95
53667;BMP280;39568;51.026;5.468;2022-07-05T09:57:38;101550.38;;;22.02
53667;BMP280;39568;51.026;5.468;2022-07-05T10:00:10;101556.03;;;21.97
53667;BMP280;39568;51.026;5.468;2022-07-05T10:02:39;101549.91;;;21.88
53667;BMP280;39568;51.026;5.468;2022-07-05T10:05:13;101548.13;;;22.23
53667;BMP280;39568;51.026;5.468;2022-07-05T10:07:43;101552.34;;;22.41
53667;BMP280;39568;51.026;5.468;2022-07-05T10:10:11;101543.88;;;22.87
53667;BMP280;39568;51.026;5.468;2022-07-05T10:12:41;101538.31;;;23.19
53667;BMP280;39568;51.026;5.468;2022-07-05T10:15:10;101536.63;;;22.64
53667;BMP280;39568;51.026;5.468;2022-07-05T10:17:40;101546.97;;;22.58
53667;BMP280;39568;51.026;5.468;2022-07-05T10:20:13;101549.53;;;22.24
53667;BMP280;39568;51.026;5.468;2022-07-05T10:22:45;101548.41;;;22.35
53667;BMP280;39568;51.026;5.468;2022-07-05T10:25:18;101546.75;;;22.39
53667;BMP280;39568;51.026;5.468;2022-07-05T10:27:46;101549.19;;;22.52
53667;BMP280;39568;51.026;5.468;2022-07-05T10:30:15;101557.91;;;23.34
53667;BMP280;39568;51.026;5.468;2022-07-05T10:32:45;101545.94;;;25.56
53667;BMP280;39568;51.026;5.468;2022-07-05T10:35:17;101536.28;;;25.74
53667;BMP280;39568;51.026;5.468;2022-07-05T10:37:46;101542.56;;;25.96
53667;BMP280;39568;51.026;5.468;2022-07-05T10:40:14;101557.69;;;23.57
53667;BMP280;39568;51.026;5.468;2022-07-05T10:42:43;101557.91;;;23.34
53667;BMP280;39568;51.026;5.468;2022-07-05T10:45:32;101557.41;;;22.94
53667;BMP280;39568;51.026;5.468;2022-07-05T10:48:12;101555.34;;;22.21
53667;BMP280;39568;51.026;5.468;2022-07-05T10:50:46;101564.47;;;23.07
53667;BMP280;39568;51.026;5.468;2022-07-05T10:53:17;101561.19;;;24.20
53667;BMP280;39568;51.026;5.468;2022-07-05T10:55:55;101550.97;;;25.03
53667;BMP280;39568;51.026;5.468;2022-07-05T10:58:30;101550.91;;;24.64
53667;BMP280;39568;51.026;5.468;2022-07-05T11:01:34;101564.13;;;24.05
53667;BMP280;39568;51.026;5.468;2022-07-05T11:04:19;101546.47;;;23.02
53667;BMP280;39568;51.026;5.468;2022-07-05T11:06:47;101559.75;;;22.41
53667;BMP280;39568;51.026;5.468;2022-07-05T11:09:18;101562.56;;;22.50
53667;BMP280;39568;51.026;5.468;2022-07-05T11:12:11;101562.63;;;23.68
53667;BMP280;39568;51.026;5.468;2022-07-05T11:14:44;101562.91;;;25.07
53667;BMP280;39568;51.026;5.468;2022-07-05T11:17:24;101552.75;;;26.57
53667;BMP280;39568;51.026;5.468;2022-07-05T11:20:17;101543.56;;;26.52
53667;BMP280;39568;51.026;5.468;2022-07-05T11:23:06;101537.06;;;26.06
53667;BMP280;39568;51.026;5.468;2022-07-05T11:25:37;101542.81;;;26.31
53667;BMP280;39568;51.026;5.468;2022-07-05T11:28:07;101537.88;;;26.48
53667;BMP280;39568;51.026;5.468;2022-07-05T11:30:55;101531.28;;;28.18
53667;BMP280;39568;51.026;5.468;2022-07-05T11:33:36;101532.13;;;28.69
53667;BMP280;39568;51.026;5.468;2022-07-05T11:36:04;101532.28;;;25.75
53667;BMP280;39568;51.026;5.468;2022-07-05T11:39:12;101536.97;;;25.94
53667;BMP280;39568;51.026;5.468;2022-07-05T11:41:44;101527.19;;;26.31
53667;BMP280;39568;51.026;5.468;2022-07-05T11:44:11;101519.44;;;26.91
53667;BMP280;39568;51.026;5.468;2022-07-05T11:46:41;101529.59;;;26.79
53667;BMP280;39568;51.026;5.468;2022-07-05T11:49:09;101522.28;;;27.81
53667;BMP280;39568;51.026;5.468;2022-07-05T11:51:35;101526.16;;;28.36
53667;BMP280;39568;51.026;5.468;2022-07-05T11:54:02;101518.16;;;28.77
53667;BMP280;39568;51.026;5.468;2022-07-05T11:56:32;101511.75;;;28.97
53667;BMP280;39568;51.026;5.468;2022-07-05T11:59:16;101517.38;;;27.13
53667;BMP280;39568;51.026;5.468;2022-07-05T12:01:43;101511.81;;;27.55
53667;BMP280;39568;51.026;5.468;2022-07-05T12:04:10;101510.72;;;27.60
53667;BMP280;39568;51.026;5.468;2022-07-05T12:06:43;101506.06;;;28.32
53667;BMP280;39568;51.026;5.468;2022-07-05T12:09:13;101516.03;;;28.39
53667;BMP280;39568;51.026;5.468;2022-07-05T12:11:49;101511.59;;;28.82
53667;BMP280;39568;51.026;5.468;2022-07-05T12:14:36;101503.38;;;29.20
53667;BMP280;39568;51.026;5.468;2022-07-05T12:17:13;101507.19;;;28.52
53667;BMP280;39568;51.026;5.468;2022-07-05T12:19:40;101511.81;;;27.55
53667;BMP280;39568;51.026;5.468;2022-07-05T12:22:06;101514.44;;;26.87
53667;BMP280;39568;51.026;5.468;2022-07-05T12:24:34;101506.72;;;26.11
53667;BMP280;39568;51.026;5.468;2022-07-05T12:27:01;101502.50;;;25.49
53667;BMP280;39568;51.026;5.468;2022-07-05T12:29:28;101509.56;;;24.95
53667;BMP280;39568;51.026;5.468;2022-07-05T12:32:00;101504.25;;;24.77
53667;BMP280;39568;51.026;5.468;2022-07-05T12:34:28;101511.59;;;25.04
53667;BMP280;39568;51.026;5.468;2022-07-05T12:36:55;101508.41;;;25.95
53667;BMP280;39568;51.026;5.468;2022-07-05T12:39:22;101517.31;;;26.89
53667;BMP280;39568;51.026;5.468;2022-07-05T12:44:18;101508.44;;;25.76
53667;BMP280;39568;51.026;5.468;2022-07-05T12:46:46;101509.44;;;27.17
53667;BMP280;39568;51.026;5.468;2022-07-05T12:49:16;101487.88;;;27.44
53667;BMP280;39568;51.026;5.468;2022-07-05T12:51:43;101498.84;;;27.00
53667;BMP280;39568;51.026;5.468;2022-07-05T12:54:19;101497.22;;;25.91
53667;BMP280;39568;51.026;5.468;2022-07-05T12:57:04;101511.22;;;24.52
53667;BMP280;39568;51.026;5.468;2022-07-05T12:59:59;101514.34;;;24.12
53667;BMP280;39568;51.026;5.468;2022-07-05T13:02:39;101513.09;;;23.87
53667;BMP280;39568;51.026;5.468;2022-07-05T13:05:20;101519.78;;;24.48
53667;BMP280;39568;51.026;5.468;2022-07-05T13:07:46;101516.69;;;24.25
53667;BMP280;39568;51.026;5.468;2022-07-05T13:10:15;101515.31;;;24.43
53667;BMP280;39568;51.026;5.468;2022-07-05T13:12:42;101520.44;;;24.75
53667;BMP280;39568;51.026;5.468;2022-07-05T13:15:08;101516.03;;;24.90
53667;BMP280;39568;51.026;5.468;2022-07-05T13:17:37;101526.59;;;25.14
53667;BMP280;39568;51.026;5.468;2022-07-05T13:20:05;101522.78;;;26.26
53667;BMP280;39568;51.026;5.468;2022-07-05T13:22:33;101515.75;;;27.86
53667;BMP280;39568;51.026;5.468;2022-07-05T13:25:00;101522.66;;;28.47
53667;BMP280;39568;51.026;5.468;2022-07-05T13:27:27;101520.84;;;29.13
53667;BMP280;39568;51.026;5.468;2022-07-05T13:29:53;101517.75;;;28.94
53667;BMP280;39568;51.026;5.468;2022-07-05T13:32:20;101514.03;;;29.80
53667;BMP280;39568;51.026;5.468;2022-07-05T13:34:53;101500.44;;;31.14
53667;BMP280;39568;51.026;5.468;2022-07-05T13:37:20;101515.66;;;32.14
53667;BMP280;39568;51.026;5.468;2022-07-05T13:39:48;101499.56;;;30.94
53667;BMP280;39568;51.026;5.468;2022-07-05T13:42:16;101493.47;;;29.81
53667;BMP280;39568;51.026;5.468;2022-07-05T13:44:42;101515.63;;;29.44
53667;BMP280;39568;51.026;5.468;2022-07-05T13:47:09;101517.47;;;29.01
53667;BMP280;39568;51.026;5.468;2022-07-05T13:49:36;101519.16;;;28.95
53667;BMP280;39568;51.026;5.468;2022-07-05T13:52:05;101524.81;;;29.10
53667;BMP280;39568;51.026;5.468;2022-07-05T13:54:32;101514.63;;;28.14
53667;BMP280;39568;51.026;5.468;2022-07-05T13:57:00;101518.78;;;27.02
53667;BMP280;39568;51.026;5.468;2022-07-05T13:59:27;101529.34;;;26.54
53667;BMP280;39568;51.026;5.468;2022-07-05T14:01:54;101524.22;;;25.77
53667;BMP280;39568;51.026;5.468;2022-07-05T14:04:21;101533.00;;;25.76
53667;BMP280;39568;51.026;5.468;2022-07-05T14:06:50;101528.28;;;26.07
53667;BMP280;39568;51.026;5.468;2022-07-05T14:09:24;101534.22;;;25.25
53667;BMP280;39568;51.026;5.468;2022-07-05T14:11:52;101529.19;;;25.22